Time;durP1;ratioP1;P1;durP2;ratioP2;P2;SDS_P1;SDS_P2;PMS_P1;PMS_P2;Temp;Humidity;BMP_temperature;BMP_pressure;BME280_temperature;BME280_humidity;BME280_pressure;Samples;Min_cycle;Max_cycle;Signal;HPM_P1;HPM_P2
2023/07/25 00:00:29;;;;;;;29.73;10.68;;;;;;;16.24;100.00;91713.31;4810144;29;20074;-81
2023/07/25 00:02:55;;;;;;;28.90;11.98;;;;;;;16.23;100.00;91709.13;4807989;29;20065;-81
2023/07/25 00:05:21;;;;;;;27.17;10.80;;;;;;;16.24;100.00;91723.88;4810101;29;20085;-81
2023/07/25 00:07:47;;;;;;;29.45;10.85;;;;;;;16.26;100.00;91734.88;4809317;29;20047;-80
2023/07/25 00:10:12;;;;;;;27.73;10.50;;;;;;;16.31;100.00;91726.69;4809398;29;20131;-80
2023/07/25 00:12:38;;;;;;;37.70;11.93;;;;;;;16.34;100.00;91720.72;4807097;29;20095;-81
2023/07/25 00:15:05;;;;;;;29.27;11.27;;;;;;;16.33;100.00;91715.78;4808774;29;20479;-81
2023/07/25 00:17:31;;;;;;;29.17;11.23;;;;;;;16.34;100.00;91709.38;4809635;29;20118;-81
2023/07/25 00:19:57;;;;;;;30.70;10.95;;;;;;;16.36;100.00;91702.66;4809483;29;20482;-81
2023/07/25 00:22:22;;;;;;;26.02;10.90;;;;;;;16.38;100.00;91702.31;4808128;29;20114;-81
2023/07/25 00:24:49;;;;;;;31.70;11.18;;;;;;;16.37;100.00;91682.28;4809343;29;20081;-81
2023/07/25 00:27:14;;;;;;;24.38;10.30;;;;;;;16.34;100.00;91681.09;4809147;29;20043;-81
2023/07/25 00:29:40;;;;;;;35.22;11.25;;;;;;;16.35;100.00;91677.38;4808557;29;20142;-81
2023/07/25 00:32:06;;;;;;;31.02;11.18;;;;;;;16.31;100.00;91660.66;4808228;29;20042;-81
2023/07/25 00:34:32;;;;;;;25.88;10.68;;;;;;;16.32;100.00;91645.56;4807816;29;20038;-81
2023/07/25 00:36:57;;;;;;;28.77;10.45;;;;;;;16.31;100.00;91630.84;4809746;29;20056;-81
2023/07/25 00:39:23;;;;;;;34.60;11.07;;;;;;;16.26;100.00;91626.59;4808046;29;20043;-81
2023/07/25 00:41:48;;;;;;;33.40;11.88;;;;;;;16.19;100.00;91626.44;4809110;29;20490;-81
2023/07/25 00:44:14;;;;;;;29.23;11.02;;;;;;;16.20;100.00;91618.16;4808228;29;20047;-80
2023/07/25 00:46:41;;;;;;;33.97;11.68;;;;;;;16.20;100.00;91578.53;4820788;29;20518;-81
2023/07/25 00:49:07;;;;;;;28.98;10.18;;;;;;;16.23;100.00;91542.75;4809521;29;20538;-80
2023/07/25 00:51:33;;;;;;;26.10;10.75;;;;;;;16.24;100.00;91523.19;4810379;29;20415;-81
2023/07/25 00:53:59;;;;;;;25.48;10.52;;;;;;;16.23;100.00;91492.59;4814970;29;20042;-80
2023/07/25 00:56:25;;;;;;;23.92;11.13;;;;;;;16.26;100.00;91505.13;4819881;29;20103;-80
2023/07/25 00:58:52;;;;;;;22.70;8.75;;;;;;;16.36;100.00;91504.59;4819373;29;20038;-80
2023/07/25 01:01:18;;;;;;;20.65;8.63;;;;;;;16.37;100.00;91515.91;4815188;29;20039;-80
2023/07/25 01:03:44;;;;;;;58.35;12.10;;;;;;;16.47;100.00;91551.59;4808848;29;20066;-81
2023/07/25 01:06:12;;;;;;;46.25;9.13;;;;;;;16.61;100.00;91604.72;4808256;29;20051;-82
2023/07/25 01:08:55;;;;;;;15.95;6.57;;;;;;;16.36;100.00;91615.50;4809717;29;20031;-81
2023/07/25 01:11:23;;;;;;;16.35;4.30;;;;;;;16.30;100.00;91640.66;4810267;29;20039;-81
2023/07/25 01:13:50;;;;;;;14.45;3.63;;;;;;;16.18;100.00;91636.22;4809552;29;20045;-81
2023/07/25 01:16:19;;;;;;;8.10;3.40;;;;;;;16.06;100.00;91667.22;4806374;29;20065;-81
2023/07/25 01:18:45;;;;;;;12.20;3.28;;;;;;;15.94;100.00;91653.00;4807372;29;20035;-81
2023/07/25 01:21:11;;;;;;;10.82;3.10;;;;;;;15.81;100.00;91636.44;4807161;29;20061;-80
2023/07/25 01:23:38;;;;;;;13.80;4.03;;;;;;;15.78;100.00;91615.22;4808285;29;20066;-80
2023/07/25 01:26:03;;;;;;;22.40;4.78;;;;;;;15.72;100.00;91577.03;4808159;29;20047;-81
2023/07/25 01:28:29;;;;;;;16.98;5.07;;;;;;;15.66;100.00;91581.00;4809541;29;20517;-81
2023/07/25 01:30:56;;;;;;;13.98;4.50;;;;;;;15.65;100.00;91590.00;4808607;29;20472;-80
2023/07/25 01:33:22;;;;;;;17.05;4.82;;;;;;;15.64;100.00;91609.56;4810103;29;20031;-81
2023/07/25 01:35:48;;;;;;;14.57;4.07;;;;;;;15.64;100.00;91605.06;4808015;29;20034;-80
2023/07/25 01:38:14;;;;;;;13.88;4.50;;;;;;;15.60;100.00;91605.00;4803294;29;20059;-80
2023/07/25 01:40:41;;;;;;;615.55;20.15;;;;;;;15.49;100.00;91603.16;4808176;29;20525;-81
2023/07/25 01:43:08;;;;;;;823.92;20.38;;;;;;;15.03;100.00;91590.28;4807385;29;20042;-81
2023/07/25 01:45:34;;;;;;;691.90;17.48;;;;;;;14.84;100.00;91590.09;4809229;29;20043;-81
2023/07/25 01:48:00;;;;;;;709.33;21.70;;;;;;;14.75;100.00;91612.09;4807880;29;20596;-80
2023/07/25 01:50:26;;;;;;;602.28;15.57;;;;;;;14.81;100.00;91635.56;4808045;29;20043;-82
2023/07/25 01:52:52;;;;;;;360.60;12.23;;;;;;;14.84;100.00;91622.50;4807289;29;20035;-80
2023/07/25 01:55:18;;;;;;;18.70;7.05;;;;;;;14.96;100.00;91619.06;4808206;29;20043;-80
2023/07/25 01:57:43;;;;;;;13.95;6.40;;;;;;;14.93;100.00;91598.66;4806887;29;20041;-80
2023/07/25 02:00:10;;;;;;;17.98;6.05;;;;;;;14.90;100.00;91571.09;4788352;29;20130;-80
2023/07/25 02:02:38;;;;;;;16.85;6.70;;;;;;;14.91;100.00;91561.34;4808855;29;20131;-81
2023/07/25 02:05:05;;;;;;;21.63;7.40;;;;;;;14.96;100.00;91553.19;4809311;29;20046;-81
2023/07/25 02:07:30;;;;;;;22.00;7.03;;;;;;;15.02;100.00;91535.25;4807178;29;20047;-81
2023/07/25 02:09:56;;;;;;;23.00;7.78;;;;;;;15.09;100.00;91509.13;4808558;29;20122;-81
2023/07/25 02:12:22;;;;;;;19.15;6.93;;;;;;;15.29;100.00;91570.63;4807615;29;20022;-82
2023/07/25 02:14:48;;;;;;;20.52;6.88;;;;;;;15.27;100.00;91604.50;4792705;29;20050;-80
2023/07/25 02:17:14;;;;;;;21.10;8.02;;;;;;;15.23;100.00;91598.34;4792184;29;20047;-81
2023/07/25 02:19:39;;;;;;;20.45;7.75;;;;;;;15.22;100.00;91507.16;4805504;29;20065;-81
2023/07/25 02:22:06;;;;;;;23.30;8.27;;;;;;;15.24;100.00;91410.06;4808010;29;20107;-81
2023/07/25 02:24:32;;;;;;;18.17;7.15;;;;;;;15.35;100.00;91390.75;4808376;29;20046;-82
2023/07/25 02:26:57;;;;;;;18.48;7.57;;;;;;;15.45;100.00;91384.19;4806976;29;20330;-82
2023/07/25 02:29:23;;;;;;;17.42;6.88;;;;;;;15.51;100.00;91361.72;4810732;29;20639;-81
2023/07/25 02:31:49;;;;;;;23.90;7.05;;;;;;;15.42;100.00;91384.88;4806399;29;20035;-82
2023/07/25 02:34:15;;;;;;;17.08;6.80;;;;;;;15.43;100.00;91391.69;4791051;29;20134;-81
2023/07/25 02:36:42;;;;;;;20.25;6.50;;;;;;;15.44;100.00;91385.28;4807795;29;20038;-81
2023/07/25 02:39:08;;;;;;;21.33;7.20;;;;;;;15.43;100.00;91377.75;4808211;29;20039;-81
2023/07/25 02:41:34;;;;;;;22.02;6.28;;;;;;;15.41;100.00;91373.56;4806693;29;20115;-80
2023/07/25 02:44:00;;;;;;;22.88;6.05;;;;;;;15.38;100.00;91374.25;4822056;29;20049;-80
2023/07/25 02:46:25;;;;;;;16.48;5.72;;;;;;;15.55;100.00;91361.81;4803484;29;20062;-81
2023/07/25 02:48:51;;;;;;;11.73;4.90;;;;;;;15.60;100.00;91358.88;4808376;29;20039;-80
2023/07/25 02:51:17;;;;;;;13.55;4.93;;;;;;;15.76;100.00;91367.59;4808265;29;20047;-80
2023/07/25 02:53:43;;;;;;;12.38;4.80;;;;;;;15.68;100.00;91359.81;4807005;29;20042;-80
2023/07/25 02:56:09;;;;;;;13.30;4.55;;;;;;;15.63;100.00;91355.59;4807439;29;20039;-81
2023/07/25 02:58:35;;;;;;;11.63;4.70;;;;;;;15.59;100.00;91368.69;4808357;29;20043;-81
2023/07/25 03:01:01;;;;;;;15.23;5.93;;;;;;;15.58;100.00;91350.56;4791705;29;20034;-81
2023/07/25 03:03:26;;;;;;;18.20;5.93;;;;;;;15.56;100.00;91353.56;4807623;29;20043;-81
2023/07/25 03:05:52;;;;;;;15.98;5.50;;;;;;;15.55;100.00;91365.19;4810216;29;20517;-81
2023/07/25 03:08:18;;;;;;;18.73;5.90;;;;;;;15.52;100.00;91373.81;4810859;29;20043;-81
2023/07/25 03:10:43;;;;;;;12.65;4.88;;;;;;;15.43;100.00;91375.09;4811570;29;20438;-81
2023/07/25 03:13:10;;;;;;;14.43;5.53;;;;;;;15.30;100.00;91391.00;4810632;29;20059;-81
2023/07/25 03:15:36;;;;;;;19.98;5.57;;;;;;;15.23;100.00;91390.09;4811181;29;20069;-82
2023/07/25 03:18:02;;;;;;;15.85;5.20;;;;;;;15.12;100.00;91398.50;4811703;29;20105;-81
2023/07/25 03:20:27;;;;;;;14.85;4.88;;;;;;;15.05;100.00;91416.78;4811784;29;20043;-81
2023/07/25 03:22:53;;;;;;;15.90;5.53;;;;;;;14.94;100.00;91434.19;4811531;29;20043;-81
2023/07/25 03:25:19;;;;;;;12.02;4.90;;;;;;;14.91;100.00;91458.59;4810916;29;20042;-80
2023/07/25 03:27:45;;;;;;;13.65;5.22;;;;;;;14.85;100.00;91452.03;4809763;29;20526;-81
2023/07/25 03:30:10;;;;;;;13.13;5.18;;;;;;;14.82;100.00;91457.97;4810783;29;20043;-80
2023/07/25 03:32:36;;;;;;;12.63;5.03;;;;;;;14.76;100.00;91454.81;4809834;29;20037;-81
2023/07/25 03:35:03;;;;;;;15.70;4.70;;;;;;;14.73;100.00;91471.28;4812612;29;20097;-81
2023/07/25 03:37:29;;;;;;;14.95;5.72;;;;;;;14.70;100.00;91471.94;4810127;29;20532;-81
2023/07/25 03:39:54;;;;;;;16.98;5.10;;;;;;;14.68;100.00;91482.03;4810246;29;20039;-81
2023/07/25 03:42:20;;;;;;;13.80;5.07;;;;;;;14.63;100.00;91498.84;4810892;29;20126;-81
2023/07/25 03:44:45;;;;;;;16.02;4.72;;;;;;;14.63;100.00;91517.28;4811445;29;20035;-81
2023/07/25 03:47:11;;;;;;;14.95;4.93;;;;;;;14.59;100.00;91524.34;4814746;29;20526;-81
2023/07/25 03:49:38;;;;;;;13.65;5.30;;;;;;;14.72;100.00;91538.97;4811633;29;20038;-81
2023/07/25 03:52:04;;;;;;;17.58;6.20;;;;;;;14.87;100.00;91536.75;4810834;29;20085;-81
2023/07/25 03:54:29;;;;;;;12.57;4.93;;;;;;;14.81;100.00;91540.72;4811668;29;20062;-81
2023/07/25 03:56:55;;;;;;;16.50;5.50;;;;;;;14.75;100.00;91538.34;4810215;29;20741;-81
2023/07/25 03:59:21;;;;;;;13.68;5.78;;;;;;;14.68;100.00;91546.03;4811531;29;20094;-81
2023/07/25 04:01:47;;;;;;;18.02;6.47;;;;;;;14.63;100.00;91562.06;4808489;29;20058;-81
2023/07/25 04:04:13;;;;;;;14.40;5.72;;;;;;;14.58;100.00;91560.44;4810828;29;20494;-81
2023/07/25 04:06:39;;;;;;;19.23;6.93;;;;;;;14.52;100.00;91545.16;4810521;29;20046;-81
2023/07/25 04:09:05;;;;;;;13.23;5.28;;;;;;;14.47;100.00;91542.75;4809471;29;20039;-81
2023/07/25 04:11:31;;;;;;;14.43;5.50;;;;;;;14.44;100.00;91546.06;4810695;29;20051;-80
2023/07/25 04:13:56;;;;;;;13.60;5.45;;;;;;;14.42;100.00;91550.91;4806784;29;20406;-81
2023/07/25 04:16:22;;;;;;;15.98;6.55;;;;;;;14.40;100.00;91545.19;4809376;29;20031;-81
2023/07/25 04:18:48;;;;;;;15.35;6.15;;;;;;;14.37;100.00;91523.69;4812349;29;20403;-82
2023/07/25 04:21:14;;;;;;;15.25;6.68;;;;;;;14.33;100.00;91533.34;4803165;29;20053;-82
2023/07/25 04:23:39;;;;;;;15.50;6.32;;;;;;;14.38;100.00;91548.91;4809504;29;20066;-81
2023/07/25 04:26:05;;;;;;;17.33;6.35;;;;;;;14.39;100.00;91560.22;4810124;29;20418;-83
2023/07/25 04:28:31;;;;;;;18.75;6.15;;;;;;;14.32;100.00;91547.63;4812400;29;20391;-81
2023/07/25 04:30:57;;;;;;;18.70;6.18;;;;;;;14.35;100.00;91559.34;4811504;29;20045;-82
2023/07/25 04:33:22;;;;;;;17.02;6.18;;;;;;;14.36;100.00;91555.59;4808425;29;20042;-81
2023/07/25 04:35:48;;;;;;;16.90;6.22;;;;;;;14.43;100.00;91563.72;4811842;29;20045;-83
2023/07/25 04:38:14;;;;;;;15.55;6.38;;;;;;;14.47;100.00;91569.84;4809652;29;20362;-82
2023/07/25 04:40:42;;;;;;;18.50;6.55;;;;;;;14.54;100.00;91574.56;4811029;29;20039;-82
2023/07/25 04:43:08;;;;;;;21.90;7.07;;;;;;;14.57;100.00;91553.63;4810644;29;20042;-83
2023/07/25 04:45:42;;;;;;;14.55;6.57;;;;;;;14.61;100.00;91537.91;4811750;29;20054;-84
2023/07/25 04:48:08;;;;;;;15.20;6.43;;;;;;;14.71;100.00;91552.50;4809989;29;20055;-82
2023/07/25 04:50:33;;;;;;;14.15;6.32;;;;;;;14.73;100.00;91564.25;4794363;29;20406;-81
2023/07/25 04:52:59;;;;;;;18.35;6.68;;;;;;;14.74;100.00;91562.38;4807780;29;20095;-82
2023/07/25 04:55:24;;;;;;;19.13;6.72;;;;;;;14.76;100.00;91560.94;4810882;29;20045;-82
2023/07/25 04:57:50;;;;;;;17.50;6.47;;;;;;;14.78;100.00;91555.34;4810810;29;20035;-82
2023/07/25 05:00:16;;;;;;;18.20;7.00;;;;;;;14.81;100.00;91540.72;4811936;29;20338;-82
2023/07/25 05:02:42;;;;;;;14.32;6.03;;;;;;;14.82;100.00;91527.22;4795973;29;20050;-82
2023/07/25 05:05:07;;;;;;;19.48;6.88;;;;;;;14.91;100.00;91521.81;4811412;29;20542;-80
2023/07/25 05:07:33;;;;;;;18.42;6.63;;;;;;;14.98;100.00;91522.75;4811994;29;20529;-81
2023/07/25 05:09:59;;;;;;;17.25;7.13;;;;;;;14.98;100.00;91519.38;4810285;29;20046;-82
2023/07/25 05:12:24;;;;;;;19.48;7.45;;;;;;;15.02;100.00;91525.50;4811412;29;20286;-82
2023/07/25 05:14:50;;;;;;;17.48;6.75;;;;;;;15.12;100.00;91526.88;4810913;29;20100;-82
2023/07/25 05:17:16;;;;;;;19.58;7.00;;;;;;;15.19;100.00;91533.09;4810643;29;20053;-82
2023/07/25 05:19:41;;;;;;;18.23;7.20;;;;;;;15.25;100.00;91530.25;4809752;29;20035;-82
2023/07/25 05:22:07;;;;;;;15.93;7.30;;;;;;;15.32;100.00;91527.78;4810147;29;20050;-82
2023/07/25 05:24:33;;;;;;;20.73;7.13;;;;;;;15.40;100.00;91524.19;4811106;29;20051;-81
2023/07/25 05:26:58;;;;;;;17.55;6.90;;;;;;;15.47;100.00;91523.59;4811013;29;20062;-81
2023/07/25 05:29:24;;;;;;;17.50;6.97;;;;;;;15.53;100.00;91523.03;4810230;29;20287;-81
2023/07/25 05:31:50;;;;;;;19.02;7.55;;;;;;;15.57;100.00;91518.59;4810636;29;20046;-81
2023/07/25 05:34:15;;;;;;;17.17;7.00;;;;;;;15.64;100.00;91517.25;4811002;29;20102;-81
2023/07/25 05:36:41;;;;;;;14.93;6.55;;;;;;;15.73;100.00;91526.53;4811306;29;20047;-81
2023/07/25 05:39:06;;;;;;;18.17;6.63;;;;;;;15.80;100.00;91525.94;4810583;29;20570;-81
2023/07/25 05:41:32;;;;;;;25.33;7.43;;;;;;;15.96;100.00;91520.66;4810094;29;20076;-81
2023/07/25 05:43:58;;;;;;;19.77;7.60;;;;;;;16.10;100.00;91518.38;4809027;29;20693;-80
2023/07/25 05:46:23;;;;;;;17.55;7.05;;;;;;;16.22;100.00;91528.03;4810062;29;20076;-81
2023/07/25 05:48:49;;;;;;;17.60;8.07;;;;;;;16.35;100.00;91524.19;4811167;29;20070;-80
2023/07/25 05:51:15;;;;;;;17.92;6.68;;;;;;;16.49;100.00;91517.69;4809894;29;20054;-81
2023/07/25 05:53:40;;;;;;;13.70;6.18;;;;;;;16.64;100.00;91508.94;4811087;29;20447;-81
2023/07/25 05:56:06;;;;;;;15.00;6.57;;;;;;;16.83;100.00;91511.59;4810740;29;20043;-81
2023/07/25 05:58:31;;;;;;;22.08;7.05;;;;;;;17.11;100.00;91505.31;4809982;29;20114;-80
2023/07/25 06:00:57;;;;;;;19.40;7.38;;;;;;;17.41;100.00;91510.03;4809383;29;20054;-80
2023/07/25 06:03:23;;;;;;;21.67;7.35;;;;;;;17.88;100.00;91519.53;4809756;29;20047;-81
2023/07/25 06:05:48;;;;;;;22.25;8.70;;;;;;;17.75;100.00;91521.56;4810875;29;20043;-81
2023/07/25 06:08:14;;;;;;;27.13;8.65;;;;;;;17.49;100.00;91514.31;4804744;29;20065;-81
2023/07/25 06:10:40;;;;;;;26.92;9.30;;;;;;;17.36;100.00;91499.72;4809983;29;20050;-81
2023/07/25 06:13:06;;;;;;;20.15;8.55;;;;;;;17.18;100.00;91483.53;4810685;29;20045;-81
2023/07/25 06:15:34;;;;;;;20.73;7.53;;;;;;;17.04;100.00;91473.47;4810576;29;20043;-81
2023/07/25 06:18:04;;;;;;;20.70;8.57;;;;;;;16.95;100.00;91483.50;4811411;29;20055;-81
2023/07/25 06:20:31;;;;;;;19.00;7.70;;;;;;;16.95;100.00;91478.22;4813585;29;20134;-81
2023/07/25 06:22:58;;;;;;;1283.60;36.83;;;;;;;17.03;100.00;91482.53;4806641;29;20035;-80
2023/07/25 06:25:25;;;;;;;1591.28;46.67;;;;;;;16.85;100.00;91488.25;4807877;29;20051;-80
2023/07/25 06:27:52;;;;;;;1271.38;39.83;;;;;;;16.64;100.00;91477.25;4808098;29;20035;-80
2023/07/25 06:30:17;;;;;;;73.70;11.18;;;;;;;16.58;100.00;91471.44;4809131;29;20034;-81
2023/07/25 06:32:43;;;;;;;27.17;8.38;;;;;;;16.68;100.00;91472.00;4807971;29;20100;-81
2023/07/25 06:35:09;;;;;;;21.00;8.85;;;;;;;16.83;100.00;91461.38;4809999;29;20049;-82
2023/07/25 06:37:36;;;;;;;22.73;8.25;;;;;;;17.19;100.00;91450.69;4809749;29;20027;-81
2023/07/25 06:40:02;;;;;;;26.10;8.65;;;;;;;17.46;100.00;91451.53;4809071;29;20118;-82
2023/07/25 06:42:28;;;;;;;17.50;7.20;;;;;;;17.55;100.00;91457.34;4808755;29;20126;-81
2023/07/25 06:44:54;;;;;;;21.88;9.20;;;;;;;17.78;100.00;91452.03;4809094;29;20065;-82
2023/07/25 06:47:20;;;;;;;169.10;12.35;;;;;;;17.90;100.00;91443.16;4793783;29;20063;-82
2023/07/25 06:49:46;;;;;;;215.23;12.88;;;;;;;18.05;100.00;91439.59;4808725;29;20058;-82
2023/07/25 06:52:12;;;;;;;708.05;22.70;;;;;;;17.51;100.00;91430.06;4808781;29;20266;-81
2023/07/25 06:54:38;;;;;;;468.58;17.83;;;;;;;17.33;100.00;91421.09;4808593;29;20047;-82
2023/07/25 06:57:04;;;;;;;433.85;17.40;;;;;;;17.02;100.00;91422.81;4810313;29;20035;-83
2023/07/25 06:59:30;;;;;;;609.92;23.15;;;;;;;16.90;100.00;91430.94;4808376;29;20105;-82
2023/07/25 07:01:56;;;;;;;590.58;22.20;;;;;;;17.06;100.00;91415.72;4807153;29;20066;-82
2023/07/25 07:04:22;;;;;;;57.67;14.73;;;;;;;17.47;100.00;91410.72;4807566;29;20038;-84
2023/07/25 07:06:47;;;;;;;28.17;12.52;;;;;;;17.94;100.00;91401.59;4805997;29;20039;-84
2023/07/25 07:09:13;;;;;;;22.00;10.35;;;;;;;18.50;100.00;91395.50;4808638;29;20383;-82
2023/07/25 07:11:39;;;;;;;20.88;9.85;;;;;;;18.94;100.00;91394.13;4808298;29;20039;-83
2023/07/25 07:14:05;;;;;;;25.13;9.45;;;;;;;19.35;100.00;91394.84;4806376;29;20042;-80
2023/07/25 07:16:31;;;;;;;26.30;10.30;;;;;;;19.12;100.00;91387.09;4806586;29;20039;-83
2023/07/25 07:18:56;;;;;;;27.40;10.27;;;;;;;18.88;100.00;91387.59;4810863;29;20094;-81
2023/07/25 07:21:22;;;;;;;26.98;11.13;;;;;;;18.82;100.00;91389.06;4807264;29;20039;-81
2023/07/25 07:23:48;;;;;;;23.70;9.85;;;;;;;18.63;100.00;91390.72;4809639;29;20055;-81
2023/07/25 07:26:14;;;;;;;55.63;11.88;;;;;;;18.54;100.00;91400.09;4809990;29;20498;-82
2023/07/25 07:28:39;;;;;;;30.67;11.55;;;;;;;18.52;100.00;91398.56;4809879;29;20406;-82
2023/07/25 07:31:08;;;;;;;29.38;11.27;;;;;;;18.67;100.00;91404.03;4808334;29;20092;-82
2023/07/25 07:33:34;;;;;;;29.00;10.38;;;;;;;18.69;100.00;91399.91;4804708;29;20422;-82
2023/07/25 07:36:00;;;;;;;24.80;10.25;;;;;;;18.89;100.00;91400.50;4809106;29;20045;-86
2023/07/25 07:38:25;;;;;;;26.15;10.88;;;;;;;19.05;100.00;91407.47;4811128;29;20082;-81
2023/07/25 07:40:51;;;;;;;31.73;10.68;;;;;;;19.25;100.00;91405.38;4820242;29;20083;-82
2023/07/25 07:43:17;;;;;;;26.98;10.35;;;;;;;19.48;100.00;91399.91;4820584;29;20069;-80
2023/07/25 07:45:43;;;;;;;23.17;9.45;;;;;;;19.94;100.00;91392.28;4821390;29;20043;-80
2023/07/25 07:48:08;;;;;;;28.35;9.32;;;;;;;20.18;100.00;91392.81;4815463;29;20059;-80
2023/07/25 07:50:34;;;;;;;21.90;8.55;;;;;;;20.25;100.00;91397.38;4810206;29;20043;-79
2023/07/25 07:53:00;;;;;;;22.23;8.05;;;;;;;20.32;100.00;91403.50;4819725;29;20039;-80
2023/07/25 07:55:26;;;;;;;51.92;13.25;;;;;;;20.17;100.00;91408.00;4813126;29;20125;-81
2023/07/25 07:57:51;;;;;;;23.77;11.25;;;;;;;20.52;100.00;91405.88;4810302;29;20116;-81
2023/07/25 08:00:17;;;;;;;37.33;13.57;;;;;;;20.40;100.00;91406.97;4810414;29;20487;-81
2023/07/25 08:02:45;;;;;;;30.70;12.95;;;;;;;20.17;100.00;91405.34;4809912;29;20078;-81
2023/07/25 08:05:12;;;;;;;64.63;14.20;;;;;;;19.98;100.00;91416.22;4809164;29;20031;-81
2023/07/25 08:07:38;;;;;;;29.55;11.25;;;;;;;19.95;100.00;91403.69;4805395;29;20042;-81
2023/07/25 08:10:07;;;;;;;25.75;11.68;;;;;;;20.12;100.00;91420.84;4808917;29;20120;-80
2023/07/25 08:12:33;;;;;;;26.50;11.35;;;;;;;20.22;100.00;91416.72;4799081;29;20070;-81
2023/07/25 08:14:59;;;;;;;26.73;10.75;;;;;;;20.31;100.00;91414.47;4806314;29;20054;-82
2023/07/25 08:17:25;;;;;;;31.27;11.98;;;;;;;20.18;100.00;91416.72;4809324;29;20534;-81
2023/07/25 08:19:50;;;;;;;33.47;13.65;;;;;;;19.81;100.00;91424.81;4810565;29;20157;-81
2023/07/25 08:22:17;;;;;;;27.02;11.13;;;;;;;19.99;100.00;91425.69;4809081;29;20423;-81
2023/07/25 08:24:43;;;;;;;32.42;14.15;;;;;;;19.88;100.00;91422.19;4811400;29;20074;-80
2023/07/25 08:27:08;;;;;;;37.30;12.77;;;;;;;19.62;100.00;91423.91;4809573;29;20042;-81
2023/07/25 08:29:41;;;;;;;23.80;10.60;;;;;;;19.46;100.00;91418.09;4801309;29;20043;-82
2023/07/25 08:32:11;;;;;;;27.98;11.65;;;;;;;19.55;100.00;91418.53;4792963;30;20039;-80
2023/07/25 08:34:38;;;;;;;35.53;13.25;;;;;;;19.60;100.00;91415.53;4803444;29;20047;-82
2023/07/25 08:37:07;;;;;;;29.05;12.38;;;;;;;19.67;100.00;91420.13;4812880;29;20046;-82
2023/07/25 08:39:33;;;;;;;33.53;11.90;;;;;;;19.34;100.00;91414.56;4810157;29;20054;-81
2023/07/25 08:42:03;;;;;;;34.25;12.27;;;;;;;19.45;100.00;91419.19;4812019;29;20547;-82
2023/07/25 08:44:32;;;;;;;23.88;9.55;;;;;;;19.61;100.00;91429.56;4810536;29;20050;-82
2023/07/25 08:47:01;;;;;;;26.38;11.60;;;;;;;19.33;100.00;91428.19;4807815;29;20055;-82
2023/07/25 08:49:34;;;;;;;21.65;9.23;;;;;;;19.51;100.00;91425.69;4811058;29;20525;-82
2023/07/25 08:52:02;;;;;;;33.40;10.38;;;;;;;19.50;100.00;91427.59;4811702;29;20039;-82
2023/07/25 08:54:31;;;;;;;23.83;9.50;;;;;;;19.59;100.00;91429.94;4812577;29;20035;-80
2023/07/25 08:56:58;;;;;;;22.75;9.10;;;;;;;19.56;100.00;91430.66;4813126;29;20481;-80
2023/07/25 08:59:25;;;;;;;26.10;9.40;;;;;;;19.77;100.00;91435.44;4810691;29;20091;-82
2023/07/25 09:01:52;;;;;;;24.17;11.07;;;;;;;19.58;100.00;91430.31;4809794;29;20047;-82
2023/07/25 09:04:19;;;;;;;21.45;7.35;;;;;;;19.80;100.00;91433.91;4809715;29;20056;-81
2023/07/25 09:06:45;;;;;;;26.10;9.15;;;;;;;19.97;100.00;91449.19;4796765;29;20583;-83
2023/07/25 09:09:11;;;;;;;27.25;10.07;;;;;;;20.01;100.00;91444.69;4808227;29;20097;-81
2023/07/25 09:11:36;;;;;;;27.17;9.38;;;;;;;20.19;100.00;91444.78;4810218;29;20099;-82
2023/07/25 09:14:03;;;;;;;29.20;9.10;;;;;;;20.11;100.00;91440.59;4811792;29;20031;-83
2023/07/25 09:16:30;;;;;;;21.45;9.32;;;;;;;20.18;100.00;91443.28;4809482;29;20095;-81
2023/07/25 09:18:56;;;;;;;22.52;7.80;;;;;;;20.29;100.00;91441.44;4811199;29;20103;-81
2023/07/25 09:21:21;;;;;;;26.35;9.43;;;;;;;20.26;100.00;91433.44;4809818;29;20654;-81
2023/07/25 09:23:52;;;;;;;17.20;7.00;;;;;;;20.63;100.00;91443.91;4810397;29;20031;-83
2023/07/25 09:26:21;;;;;;;23.63;8.00;;;;;;;20.84;100.00;91455.78;4808940;29;20512;-82
2023/07/25 09:28:58;;;;;;;22.35;8.43;;;;;;;20.89;100.00;91456.16;4810186;29;20387;-82
2023/07/25 09:31:24;;;;;;;18.00;7.50;;;;;;;20.69;100.00;91457.59;4807505;29;20050;-82
2023/07/25 09:33:52;;;;;;;22.85;8.98;;;;;;;20.92;100.00;91450.13;4810981;29;20056;-82
2023/07/25 09:36:19;;;;;;;19.30;7.82;;;;;;;20.95;100.00;91449.34;4811193;29;20462;-82
2023/07/25 09:38:53;;;;;;;22.23;7.82;;;;;;;21.09;100.00;91458.50;4810849;29;20055;-82
2023/07/25 09:41:22;;;;;;;20.83;7.47;;;;;;;21.12;100.00;91444.44;4810787;29;20035;-82
2023/07/25 09:43:49;;;;;;;21.63;7.97;;;;;;;21.19;100.00;91453.22;4809285;29;20530;-81
2023/07/25 09:46:15;;;;;;;18.13;6.65;;;;;;;21.36;100.00;91449.06;4807300;29;20455;-79
2023/07/25 09:48:51;;;;;;;26.63;8.18;;;;;;;21.05;100.00;91452.41;4810588;29;20042;-83
2023/07/25 09:51:16;;;;;;;22.15;6.82;;;;;;;21.33;100.00;91449.06;4807485;29;20107;-83
2023/07/25 09:53:53;;;;;;;17.83;7.05;;;;;;;21.37;100.00;91450.59;4808747;29;20054;-82
2023/07/25 09:56:24;;;;;;;19.15;7.72;;;;;;;21.52;100.00;91454.06;4808392;29;20042;-83
2023/07/25 09:58:51;;;;;;;23.02;7.70;;;;;;;21.65;100.00;91451.78;4807505;29;20068;-83
2023/07/25 10:01:18;;;;;;;20.27;7.15;;;;;;;21.86;100.00;91464.34;4807755;29;20039;-83
2023/07/25 10:03:44;;;;;;;24.00;7.80;;;;;;;21.85;100.00;91462.09;4791637;29;20046;-81
2023/07/25 10:06:10;;;;;;;19.08;6.47;;;;;;;21.79;100.00;91459.03;4803231;29;20047;-81
2023/07/25 10:08:41;;;;;;;24.45;7.40;;;;;;;22.04;100.00;91454.47;4808948;29;20050;-81
2023/07/25 10:11:07;;;;;;;18.60;7.85;;;;;;;22.17;100.00;91454.06;4809589;29;20034;-81
2023/07/25 10:13:33;;;;;;;21.17;7.95;;;;;;;22.12;100.00;91451.78;4806502;29;20039;-82
2023/07/25 10:16:00;;;;;;;19.02;7.88;;;;;;;21.91;100.00;91457.88;4806602;29;20133;-82
2023/07/25 10:18:27;;;;;;;22.17;8.20;;;;;;;21.95;100.00;91456.75;4806340;29;20039;-82
2023/07/25 10:20:54;;;;;;;20.23;7.22;;;;;;;21.83;100.00;91454.47;4800171;29;20095;-82
2023/07/25 10:23:34;;;;;;;20.50;7.80;;;;;;;21.95;100.00;91453.31;4806488;29;20038;-83
2023/07/25 10:26:13;;;;;;;18.40;7.63;;;;;;;22.15;100.00;91459.78;4819783;29;20046;-82
2023/07/25 10:28:40;;;;;;;27.67;8.18;;;;;;;22.08;100.00;91459.03;4790956;29;20054;-83
2023/07/25 10:31:30;;;;;;;21.92;7.53;;;;;;;22.13;100.00;91462.06;4806759;29;20114;-83
2023/07/25 10:33:59;;;;;;;17.17;7.13;;;;;;;22.31;100.00;91451.41;4805203;29;20031;-82
2023/07/25 10:36:25;;;;;;;20.77;7.50;;;;;;;22.26;100.00;91451.03;4798238;29;20069;-82
2023/07/25 10:38:52;;;;;;;13.90;5.88;;;;;;;22.37;100.00;91446.44;4805513;29;20541;-82
2023/07/25 10:41:19;;;;;;;14.43;6.25;;;;;;;22.16;100.00;91449.88;4811777;29;20118;-81
2023/07/25 10:43:45;;;;;;;15.70;5.40;;;;;;;22.45;100.00;91450.63;4802070;29;20039;-79
2023/07/25 10:46:27;;;;;;;14.90;6.28;;;;;;;22.47;100.00;91450.22;4812518;29;20054;-78
2023/07/25 10:48:55;;;;;;;20.90;7.10;;;;;;;22.50;100.00;91455.56;4800370;29;20300;-80
2023/07/25 10:51:21;;;;;;;18.00;6.28;;;;;;;22.52;100.00;91447.19;4808467;29;20046;-82
2023/07/25 10:54:08;;;;;;;14.50;5.75;;;;;;;22.59;100.00;91450.59;4811516;29;20121;-81
2023/07/25 10:56:33;;;;;;;16.08;5.53;;;;;;;22.50;100.00;91468.91;4805287;29;20043;-82
2023/07/25 10:59:10;;;;;;;13.15;5.85;;;;;;;22.54;100.00;91458.19;4815176;29;20038;-81
2023/07/25 11:01:39;;;;;;;18.77;6.68;;;;;;;22.39;100.00;91454.81;4806159;29;20051;-81
2023/07/25 11:04:24;;;;;;;14.98;4.93;;;;;;;22.48;100.00;91459.75;4807805;29;20068;-79
2023/07/25 11:06:52;;;;;;;11.95;5.93;;;;;;;22.52;100.00;91450.59;4807568;29;20394;-81
2023/07/25 11:09:19;;;;;;;17.27;5.57;;;;;;;22.70;100.00;91452.44;4806110;29;20511;-81
2023/07/25 11:11:47;;;;;;;17.02;6.18;;;;;;;22.55;100.00;91449.06;4806663;29;20034;-80